Time;durP1;ratioP1;P1;durP2;ratioP2;P2;SDS_P1;SDS_P2;PMS_P1;PMS_P2;Temp;Humidity;BMP_temperature;BMP_pressure;BME280_temperature;BME280_humidity;BME280_pressure;Samples;Min_cycle;Max_cycle;Signal;HPM_P1;HPM_P2
2023/06/13 00:02:07;;;;;;;5.90;4.40;;;;;;;-145.41;100.00;58600.66;4972605;28;20039;-76
2023/06/13 00:04:32;;;;;;;6.28;4.53;;;;;;;-145.41;100.00;58600.66;4979234;28;20035;-76
2023/06/13 00:06:58;;;;;;;9.65;4.88;;;;;;;-145.41;100.00;58600.66;4972153;28;20065;-76
2023/06/13 00:09:24;;;;;;;7.85;4.80;;;;;;;-145.41;100.00;58600.66;4971905;28;20114;-76
2023/06/13 00:11:51;;;;;;;8.40;4.60;;;;;;;-145.41;100.00;58600.66;4979235;28;20031;-76
2023/06/13 00:14:17;;;;;;;6.55;4.65;;;;;;;-145.41;100.00;58600.66;4978406;28;20629;-76
2023/06/13 00:16:44;;;;;;;5.90;4.65;;;;;;;-145.41;100.00;58600.66;4972270;28;20034;-76
2023/06/13 00:19:13;;;;;;;5.13;4.00;;;;;;;-145.41;100.00;58600.66;4972072;28;20405;-75
2023/06/13 00:21:38;;;;;;;8.13;4.32;;;;;;;-145.41;100.00;58600.66;4970882;28;20033;-76
2023/06/13 00:24:05;;;;;;;7.38;4.53;;;;;;;-145.41;100.00;58600.66;4971761;28;20035;-76
2023/06/13 00:26:30;;;;;;;6.25;4.15;;;;;;;-145.41;100.00;58600.66;4972069;28;20031;-76
2023/06/13 00:28:55;;;;;;;9.10;4.80;;;;;;;-145.41;100.00;58600.66;4971691;28;20061;-75
2023/06/13 00:31:21;;;;;;;7.07;4.18;;;;;;;-145.41;100.00;58600.66;4976879;28;20042;-76
2023/06/13 00:33:50;;;;;;;6.10;4.10;;;;;;;-145.41;100.00;58600.66;4977907;28;20043;-76
2023/06/13 00:36:20;;;;;;;7.35;5.00;;;;;;;-145.41;100.00;58600.66;4968012;28;20054;-75
2023/06/13 00:38:47;;;;;;;9.38;4.80;;;;;;;-145.41;100.00;58600.66;4971746;28;20030;-76
2023/06/13 00:41:13;;;;;;;9.00;4.60;;;;;;;-145.41;100.00;58600.66;4980329;28;20082;-76
2023/06/13 00:43:39;;;;;;;6.50;4.88;;;;;;;-145.41;100.00;58600.66;4980259;28;20030;-76
2023/06/13 00:46:04;;;;;;;7.80;6.03;;;;;;;-145.41;100.00;58600.66;4975266;28;20250;-76
2023/06/13 00:48:31;;;;;;;7.10;5.60;;;;;;;-145.41;100.00;58600.66;4975470;28;20155;-76
2023/06/13 00:50:57;;;;;;;5.88;5.07;;;;;;;-145.41;100.00;58600.66;4977573;28;20031;-76
2023/06/13 00:53:29;;;;;;;6.13;5.18;;;;;;;-145.41;100.00;58600.66;4975807;28;20035;-76
2023/06/13 00:55:56;;;;;;;6.90;5.15;;;;;;;-145.41;100.00;58600.66;4975046;28;20501;-76
2023/06/13 00:58:22;;;;;;;6.47;4.78;;;;;;;-145.41;100.00;58600.66;4976108;28;20039;-76
2023/06/13 01:00:52;;;;;;;8.68;5.40;;;;;;;-145.41;100.00;58600.66;4965451;28;20034;-75
2023/06/13 01:03:19;;;;;;;6.88;5.15;;;;;;;-145.41;100.00;58600.66;4991211;28;20046;-76
2023/06/13 01:05:46;;;;;;;6.63;4.90;;;;;;;-145.41;100.00;58600.66;4977430;28;20509;-75
2023/06/13 01:08:19;;;;;;;8.10;4.68;;;;;;;-145.41;100.00;58600.66;4976028;28;20050;-76
2023/06/13 01:10:59;;;;;;;9.48;4.85;;;;;;;-145.41;100.00;58600.66;4975675;28;20042;-76
2023/06/13 01:13:34;;;;;;;7.63;5.22;;;;;;;-145.41;100.00;58600.66;4981185;28;20034;-76
2023/06/13 01:16:20;;;;;;;7.35;4.63;;;;;;;-145.41;100.00;58600.66;4972288;28;20026;-76
2023/06/13 01:18:49;;;;;;;7.10;4.80;;;;;;;-145.41;100.00;58600.66;4986445;28;20109;-76
2023/06/13 01:21:17;;;;;;;6.45;5.13;;;;;;;-145.41;100.00;58600.66;4981025;28;20070;-76
2023/06/13 01:23:51;;;;;;;5.80;4.57;;;;;;;-145.41;100.00;58600.66;4982836;28;20034;-76
2023/06/13 01:26:51;;;;;;;6.35;4.30;;;;;;;-145.41;100.00;58600.66;4982086;28;20072;-76
2023/06/13 01:29:18;;;;;;;9.18;4.97;;;;;;;-145.41;100.00;58600.66;4973653;28;20528;-76
2023/06/13 01:31:46;;;;;;;6.82;5.78;;;;;;;-145.41;100.00;58600.66;4976186;28;20426;-76
2023/06/13 01:34:13;;;;;;;9.38;5.15;;;;;;;-145.41;100.00;58600.66;4987249;28;20034;-77
2023/06/13 01:36:39;;;;;;;9.30;5.07;;;;;;;-145.41;100.00;58600.66;4983086;28;20042;-76
2023/06/13 01:39:04;;;;;;;8.90;5.28;;;;;;;-145.41;100.00;58600.66;4975627;28;20042;-76
2023/06/13 01:41:29;;;;;;;8.93;4.30;;;;;;;-145.41;100.00;58600.66;4979841;28;20062;-76
2023/06/13 01:43:57;;;;;;;8.15;5.28;;;;;;;-145.41;100.00;58600.66;4980281;28;20027;-76
2023/06/13 01:46:28;;;;;;;7.00;5.22;;;;;;;-145.41;100.00;58600.66;4976622;28;20563;-77
2023/06/13 01:49:05;;;;;;;6.60;4.90;;;;;;;-145.41;100.00;58600.66;4982307;28;20030;-77
2023/06/13 01:51:46;;;;;;;6.97;4.82;;;;;;;-145.41;100.00;58600.66;4976181;28;20030;-77
2023/06/13 01:54:16;;;;;;;8.07;4.38;;;;;;;-145.41;100.00;58600.66;4976308;28;20085;-75
2023/06/13 01:56:43;;;;;;;5.93;4.43;;;;;;;-145.41;100.00;58600.66;4974111;28;20121;-76
2023/06/13 01:59:10;;;;;;;6.85;4.30;;;;;;;-145.41;100.00;58600.66;4981378;28;20041;-76
2023/06/13 02:01:41;;;;;;;7.15;5.03;;;;;;;-145.41;100.00;58600.66;4983203;28;20402;-76
2023/06/13 02:04:07;;;;;;;8.38;5.72;;;;;;;-145.41;100.00;58600.66;4976318;28;20393;-77
2023/06/13 02:06:33;;;;;;;9.63;5.45;;;;;;;-145.41;100.00;58600.66;4988417;28;20030;-76
2023/06/13 02:08:58;;;;;;;6.45;5.13;;;;;;;-145.41;100.00;58600.66;4974454;28;20027;-76
2023/06/13 02:11:25;;;;;;;7.72;5.53;;;;;;;-145.41;100.00;58600.66;4974879;28;20038;-76
2023/06/13 02:13:52;;;;;;;8.32;5.35;;;;;;;-145.41;100.00;58600.66;4982233;28;20094;-76
2023/06/13 02:16:18;;;;;;;6.38;4.70;;;;;;;-145.41;100.00;58600.66;4981117;28;20453;-76
2023/06/13 02:18:46;;;;;;;7.35;5.75;;;;;;;-145.41;100.00;58600.66;4971635;28;20058;-75
2023/06/13 02:21:12;;;;;;;8.32;4.28;;;;;;;-145.41;100.00;58600.66;4974865;28;20035;-76
2023/06/13 02:23:37;;;;;;;6.85;5.10;;;;;;;-145.41;100.00;58600.66;4975360;28;20041;-76
2023/06/13 02:26:03;;;;;;;7.28;5.05;;;;;;;-145.41;100.00;58600.66;4975084;28;20066;-76
2023/06/13 02:28:28;;;;;;;7.82;5.25;;;;;;;-145.41;100.00;58600.66;4981676;28;20038;-76
2023/06/13 02:30:53;;;;;;;7.82;4.88;;;;;;;-145.41;100.00;58600.66;4981347;28;20046;-76
2023/06/13 02:33:20;;;;;;;12.25;6.22;;;;;;;-145.41;100.00;58600.66;4980272;28;20035;-76
2023/06/13 02:35:46;;;;;;;5.93;4.57;;;;;;;-145.41;100.00;58600.66;4976854;28;20083;-76
2023/06/13 02:38:11;;;;;;;8.80;4.97;;;;;;;-145.41;100.00;58600.66;4984005;28;20062;-77
2023/06/13 02:40:37;;;;;;;6.38;4.78;;;;;;;-145.41;100.00;58600.66;4981666;28;20569;-76
2023/06/13 02:43:03;;;;;;;7.50;5.25;;;;;;;-145.41;100.00;58600.66;4975109;28;20549;-76
2023/06/13 02:48:04;;;;;;;8.55;4.95;;;;;;;-145.41;100.00;58600.66;4989749;28;20042;-80
2023/06/13 02:50:29;;;;;;;7.78;5.03;;;;;;;-145.41;100.00;58600.66;4989039;28;20031;-79
2023/06/13 02:52:55;;;;;;;6.88;5.20;;;;;;;-145.41;100.00;58600.66;4992656;28;20034;-80
2023/06/13 02:55:20;;;;;;;9.82;5.22;;;;;;;-145.41;100.00;58600.66;4988864;28;20078;-79
2023/06/13 02:57:46;;;;;;;9.25;5.53;;;;;;;-145.41;100.00;58600.66;4990467;28;20037;-80
2023/06/13 03:00:15;;;;;;;8.68;6.10;;;;;;;-145.41;100.00;58600.66;4975287;28;20034;-80
2023/06/13 03:02:44;;;;;;;8.57;5.88;;;;;;;-145.41;100.00;58600.66;4987101;28;20029;-79
2023/06/13 03:05:11;;;;;;;9.65;5.88;;;;;;;-145.41;100.00;58600.66;4992662;28;20026;-80
2023/06/13 03:07:42;;;;;;;8.23;6.68;;;;;;;-145.41;100.00;58600.66;4985076;28;20441;-79
2023/06/13 03:10:08;;;;;;;10.10;7.95;;;;;;;-145.41;100.00;58600.66;4974798;28;20030;-80
2023/06/13 03:12:40;;;;;;;10.15;6.88;;;;;;;-145.41;100.00;58600.66;4989480;28;20525;-80
2023/06/13 03:15:07;;;;;;;8.23;6.38;;;;;;;-145.41;100.00;58600.66;4991070;28;20374;-80
2023/06/13 03:17:33;;;;;;;14.75;10.55;;;;;;;-145.41;100.00;58600.66;4986648;28;20038;-80
2023/06/13 03:20:00;;;;;;;10.35;7.60;;;;;;;-145.41;100.00;58600.66;4986644;28;20037;-80
2023/06/13 03:22:25;;;;;;;12.10;8.40;;;;;;;-145.41;100.00;58600.66;4991758;28;20022;-80
2023/06/13 03:24:52;;;;;;;11.98;6.60;;;;;;;-145.41;100.00;58600.66;4976438;28;20035;-78
2023/06/13 03:27:18;;;;;;;9.73;6.45;;;;;;;-145.41;100.00;58600.66;4990496;28;20034;-79
2023/06/13 03:29:46;;;;;;;8.35;5.72;;;;;;;-145.41;100.00;58600.66;4990849;28;20092;-79
2023/06/13 03:32:12;;;;;;;8.48;5.20;;;;;;;-145.41;100.00;58600.66;4988939;28;20073;-80
2023/06/13 03:34:39;;;;;;;6.90;5.47;;;;;;;-145.41;100.00;58600.66;4990242;28;20033;-79
2023/06/13 03:37:08;;;;;;;7.32;5.60;;;;;;;-145.41;100.00;58600.66;4991454;28;20041;-81
2023/06/13 03:39:35;;;;;;;9.00;6.63;;;;;;;-145.41;100.00;58600.66;4971915;28;20035;-80
2023/06/13 03:42:01;;;;;;;8.02;6.20;;;;;;;-145.41;100.00;58600.66;4979099;28;20062;-80
2023/06/13 03:44:28;;;;;;;9.30;6.90;;;;;;;-145.41;100.00;58600.66;4975292;28;20022;-80
2023/06/13 03:46:54;;;;;;;10.63;6.85;;;;;;;-145.41;100.00;58600.66;4987272;28;20092;-77
2023/06/13 03:49:20;;;;;;;11.02;8.13;;;;;;;-145.41;100.00;58600.66;4987139;28;20101;-80
2023/06/13 03:51:45;;;;;;;8.65;6.85;;;;;;;-145.41;100.00;58600.66;4988935;28;20042;-81
2023/06/13 03:54:11;;;;;;;10.20;6.53;;;;;;;-145.41;100.00;58600.66;4988982;28;20540;-80
2023/06/13 03:56:36;;;;;;;8.68;7.10;;;;;;;-145.41;100.00;58600.66;4989365;28;20072;-78
2023/06/13 03:59:02;;;;;;;9.35;7.28;;;;;;;-145.41;100.00;58600.66;4999671;28;20084;-77
2023/06/13 04:01:28;;;;;;;9.68;7.20;;;;;;;-145.41;100.00;58600.66;5000913;28;20042;-78
2023/06/13 04:03:54;;;;;;;10.50;7.95;;;;;;;-145.41;100.00;58600.66;4991288;28;20037;-78
2023/06/13 04:06:19;;;;;;;11.52;8.38;;;;;;;-145.41;100.00;58600.66;5001069;28;20054;-78
2023/06/13 04:08:44;;;;;;;10.38;8.65;;;;;;;-145.41;100.00;58600.66;4990573;28;20701;-79
2023/06/13 04:11:10;;;;;;;13.60;8.48;;;;;;;-145.41;100.00;58600.66;4993383;28;20034;-78
2023/06/13 04:13:36;;;;;;;8.45;7.55;;;;;;;-145.41;100.00;58600.66;4985860;28;20022;-77
2023/06/13 04:16:02;;;;;;;9.30;6.93;;;;;;;-145.41;100.00;58600.66;4999313;28;20065;-78
2023/06/13 04:18:28;;;;;;;12.30;7.10;;;;;;;-145.41;100.00;58600.66;4996405;28;20034;-78
2023/06/13 04:20:57;;;;;;;10.55;7.25;;;;;;;-145.41;100.00;58600.66;5001532;28;20092;-78
2023/06/13 04:23:25;;;;;;;10.30;7.20;;;;;;;-145.41;100.00;58600.66;4996589;28;20026;-78
2023/06/13 04:25:52;;;;;;;8.40;6.45;;;;;;;-145.41;100.00;58600.66;4977114;28;20049;-78
2023/06/13 04:28:17;;;;;;;10.75;7.68;;;;;;;-145.41;100.00;58600.66;4997068;28;20035;-77
2023/06/13 04:30:46;;;;;;;12.20;8.80;;;;;;;-145.41;100.00;58600.66;4985176;28;20044;-78
2023/06/13 04:33:17;;;;;;;12.00;8.52;;;;;;;-145.41;100.00;58600.66;4997035;28;20027;-77
2023/06/13 04:35:44;;;;;;;10.18;7.10;;;;;;;-145.41;100.00;58600.66;4998413;28;20038;-77
2023/06/13 04:38:21;;;;;;;11.27;6.75;;;;;;;-145.41;100.00;58600.66;4981575;28;20045;-77
2023/06/13 04:40:48;;;;;;;11.68;8.23;;;;;;;-145.41;100.00;58600.66;4997452;28;20117;-77
2023/06/13 04:43:16;;;;;;;8.88;7.25;;;;;;;-145.41;100.00;58600.66;4995917;28;20490;-78
2023/06/13 04:45:43;;;;;;;9.20;7.03;;;;;;;-145.41;100.00;58600.66;4996321;28;20045;-78
2023/06/13 04:48:09;;;;;;;11.18;7.72;;;;;;;-145.41;100.00;58600.66;4997698;28;20120;-77
2023/06/13 04:50:37;;;;;;;12.10;7.25;;;;;;;-145.41;100.00;58600.66;4995653;28;20034;-78
2023/06/13 04:53:07;;;;;;;10.10;7.28;;;;;;;-145.41;100.00;58600.66;4979516;28;20044;-79
2023/06/13 04:55:32;;;;;;;9.60;7.68;;;;;;;-145.41;100.00;58600.66;4994368;28;20041;-78
2023/06/13 04:57:59;;;;;;;10.00;7.07;;;;;;;-145.41;100.00;58600.66;4993018;28;20072;-77
2023/06/13 05:00:25;;;;;;;11.75;7.70;;;;;;;-145.41;100.00;58600.66;4994392;28;20022;-77
2023/06/13 05:02:51;;;;;;;15.13;8.77;;;;;;;-145.41;100.00;58600.66;4997735;28;20416;-78
2023/06/13 05:05:18;;;;;;;10.75;6.32;;;;;;;-145.41;100.00;58600.66;4995962;28;20042;-77
2023/06/13 05:07:44;;;;;;;9.07;6.10;;;;;;;-145.41;100.00;58600.66;4994062;28;20088;-78
2023/06/13 05:10:09;;;;;;;13.05;10.02;;;;;;;-145.41;100.00;58600.66;4994651;28;20042;-77
2023/06/13 05:12:35;;;;;;;8.85;5.95;;;;;;;-145.41;100.00;58600.66;4986812;28;20042;-77
2023/06/13 05:15:00;;;;;;;7.35;6.05;;;;;;;-145.41;100.00;58600.66;4991552;28;20046;-77
2023/06/13 05:17:27;;;;;;;9.07;6.75;;;;;;;-145.41;100.00;58600.66;4992033;28;20039;-77
2023/06/13 05:19:54;;;;;;;10.57;5.70;;;;;;;-145.41;100.00;58600.66;4993004;28;20094;-77
2023/06/13 05:22:19;;;;;;;13.88;6.57;;;;;;;-145.41;100.00;58600.66;4994645;28;20062;-77
2023/06/13 05:24:45;;;;;;;12.05;6.35;;;;;;;-145.41;100.00;58600.66;4984745;28;20038;-77
2023/06/13 05:27:11;;;;;;;10.30;5.88;;;;;;;-145.41;100.00;58600.66;4995064;28;20053;-77
2023/06/13 05:29:36;;;;;;;10.60;6.03;;;;;;;-145.41;100.00;58600.66;4994818;28;20034;-77
2023/06/13 05:32:02;;;;;;;10.43;5.93;;;;;;;-145.41;100.00;58600.66;4991022;28;20041;-76
2023/06/13 05:34:27;;;;;;;12.30;5.93;;;;;;;-145.41;100.00;58600.66;4997802;28;20049;-77
2023/06/13 05:36:53;;;;;;;10.95;5.95;;;;;;;-145.41;100.00;58600.66;4997662;28;20064;-78
2023/06/13 05:39:18;;;;;;;9.32;5.32;;;;;;;-145.41;100.00;58600.66;4982319;28;20045;-79
2023/06/13 05:41:44;;;;;;;7.28;4.95;;;;;;;-145.41;100.00;58600.66;4996184;28;20393;-77
2023/06/13 05:44:09;;;;;;;6.35;5.05;;;;;;;-145.41;100.00;58600.66;4996618;28;20412;-78
2023/06/13 05:46:34;;;;;;;9.52;5.68;;;;;;;-145.41;100.00;58600.66;4995352;28;20063;-78
2023/06/13 05:49:00;;;;;;;8.57;5.30;;;;;;;-145.41;100.00;58600.66;4995848;28;20069;-78
2023/06/13 05:51:25;;;;;;;11.02;6.05;;;;;;;-145.41;100.00;58600.66;4995948;28;20033;-79
2023/06/13 05:53:50;;;;;;;9.50;5.82;;;;;;;-145.41;100.00;58600.66;4997271;28;20049;-78
2023/06/13 05:56:16;;;;;;;6.38;4.75;;;;;;;-145.41;100.00;58600.66;4997567;28;20053;-78
2023/06/13 05:58:43;;;;;;;7.25;4.88;;;;;;;-145.41;100.00;58600.66;4995933;28;20041;-78
2023/06/13 06:01:09;;;;;;;8.25;4.72;;;;;;;-145.41;100.00;58600.66;4996881;28;20109;-78
2023/06/13 06:03:35;;;;;;;8.85;5.07;;;;;;;-145.41;100.00;58600.66;4996101;28;20501;-78
2023/06/13 06:06:00;;;;;;;11.45;8.13;;;;;;;-145.41;100.00;58600.66;4992660;28;20149;-78
2023/06/13 06:08:26;;;;;;;10.25;6.93;;;;;;;-145.41;100.00;58600.66;4993254;28;20038;-77
2023/06/13 06:10:51;;;;;;;9.63;6.38;;;;;;;-145.41;100.00;58600.66;4994369;28;20049;-78
2023/06/13 06:13:16;;;;;;;8.55;4.70;;;;;;;-145.41;100.00;58600.66;4992621;28;20038;-78
2023/06/13 06:15:42;;;;;;;9.40;5.00;;;;;;;-145.41;100.00;58600.66;4996200;28;20065;-79
2023/06/13 06:18:08;;;;;;;13.05;5.90;;;;;;;-145.41;100.00;58600.66;4995342;28;20042;-79
2023/06/13 06:20:33;;;;;;;10.05;5.78;;;;;;;-145.41;100.00;58600.66;4993619;28;20042;-78
2023/06/13 06:22:59;;;;;;;8.38;5.63;;;;;;;-145.41;100.00;58600.66;4995476;28;20109;-78
2023/06/13 06:25:24;;;;;;;7.85;4.30;;;;;;;-145.41;100.00;58600.66;4994763;28;20065;-79
2023/06/13 06:27:50;;;;;;;12.55;5.68;;;;;;;-145.41;100.00;58600.66;4990426;28;20027;-79
2023/06/13 06:30:15;;;;;;;10.38;5.97;;;;;;;-145.41;100.00;58600.66;4994483;28;20034;-78
2023/06/13 06:32:41;;;;;;;10.48;6.30;;;;;;;-145.41;100.00;58600.66;4994984;28;20026;-78
2023/06/13 06:35:07;;;;;;;9.90;4.78;;;;;;;-145.41;100.00;58600.66;4995817;28;20045;-78
2023/06/13 06:37:33;;;;;;;6.10;4.50;;;;;;;-145.41;100.00;58600.66;4997560;28;20042;-78
2023/06/13 06:39:59;;;;;;;11.43;5.40;;;;;;;-145.41;100.00;58600.66;4990074;28;20033;-78
2023/06/13 06:42:25;;;;;;;8.32;4.82;;;;;;;-145.41;100.00;58600.66;4996365;28;20030;-78
2023/06/13 06:45:12;;;;;;;7.78;5.35;;;;;;;-145.41;100.00;58600.66;4995189;28;20046;-79
2023/06/13 06:47:37;;;;;;;9.10;4.75;;;;;;;-145.41;100.00;58600.66;4995294;28;20121;-78
2023/06/13 06:50:03;;;;;;;7.38;5.55;;;;;;;-145.41;100.00;58600.66;4990409;28;20062;-78
2023/06/13 06:52:28;;;;;;;7.40;4.50;;;;;;;-145.41;100.00;58600.66;4991913;28;20030;-78
2023/06/13 06:54:55;;;;;;;10.40;5.50;;;;;;;-145.41;100.00;58600.66;4995214;28;20550;-78
2023/06/13 06:57:20;;;;;;;10.30;6.82;;;;;;;-145.41;100.00;58600.66;4995286;28;20120;-78
2023/06/13 06:59:45;;;;;;;8.57;5.93;;;;;;;-145.41;100.00;58600.66;4994971;28;20034;-78
2023/06/13 07:02:11;;;;;;;14.98;9.18;;;;;;;-145.41;100.00;58600.66;4995358;28;20026;-78
2023/06/13 07:04:36;;;;;;;7.70;5.38;;;;;;;-145.41;100.00;58600.66;4995308;28;20438;-78
2023/06/13 07:07:02;;;;;;;8.30;5.75;;;;;;;-145.41;100.00;58600.66;4993948;28;20038;-78
2023/06/13 07:09:27;;;;;;;9.73;7.60;;;;;;;-145.41;100.00;58600.66;4994369;28;20088;-79
2023/06/13 07:11:56;;;;;;;10.85;7.85;;;;;;;-145.41;100.00;58600.66;4993960;28;20034;-79
2023/06/13 07:14:22;;;;;;;8.38;5.95;;;;;;;-145.41;100.00;58600.66;4994222;28;20034;-78
2023/06/13 07:16:47;;;;;;;9.57;6.15;;;;;;;-145.41;100.00;58600.66;4995506;28;20420;-79
2023/06/13 07:19:12;;;;;;;8.15;5.50;;;;;;;-145.41;100.00;58600.66;4993571;28;20030;-79
2023/06/13 07:21:38;;;;;;;9.35;5.95;;;;;;;-145.41;100.00;58600.66;4996164;28;20493;-78
2023/06/13 07:24:03;;;;;;;10.98;6.15;;;;;;;-145.41;100.00;58600.66;4994361;28;20114;-79
2023/06/13 07:26:29;;;;;;;6.75;4.40;;;;;;;-145.41;100.00;58600.66;4993363;28;20120;-79
2023/06/13 07:28:55;;;;;;;7.57;4.43;;;;;;;-145.41;100.00;58600.66;4993212;28;20065;-79
2023/06/13 07:31:20;;;;;;;6.03;4.50;;;;;;;-145.41;100.00;58600.66;4995484;28;20030;-79
2023/06/13 07:33:46;;;;;;;6.90;4.18;;;;;;;-145.41;100.00;58600.66;4995056;28;20060;-78
2023/06/13 07:36:11;;;;;;;9.40;5.53;;;;;;;-145.41;100.00;58600.66;4994714;28;20030;-78
2023/06/13 07:38:37;;;;;;;10.23;6.78;;;;;;;-145.41;100.00;58600.66;4993403;28;20045;-78
2023/06/13 07:41:03;;;;;;;8.55;4.50;;;;;;;-145.41;100.00;58600.66;4990803;28;20034;-78
2023/06/13 07:43:29;;;;;;;7.28;4.90;;;;;;;-145.41;100.00;58600.66;4993963;28;20064;-78
2023/06/13 07:45:54;;;;;;;10.30;4.22;;;;;;;-145.41;100.00;58600.66;4994144;28;20062;-78
2023/06/13 07:48:20;;;;;;;7.40;3.88;;;;;;;-145.41;100.00;58600.66;4994053;28;20034;-79
2023/06/13 07:50:46;;;;;;;12.98;5.32;;;;;;;-145.41;100.00;58600.66;4993663;28;20040;-78
2023/06/13 07:53:11;;;;;;;5.70;3.47;;;;;;;-145.41;100.00;58600.66;4994411;28;20121;-78
2023/06/13 07:55:37;;;;;;;10.15;4.07;;;;;;;-145.41;100.00;58600.66;4991674;28;20113;-78
2023/06/13 07:58:03;;;;;;;7.93;3.40;;;;;;;-145.41;100.00;58600.66;4992761;28;20489;-78
2023/06/13 08:00:30;;;;;;;8.20;3.70;;;;;;;-145.41;100.00;58600.66;4992487;28;20026;-78
2023/06/13 08:02:55;;;;;;;5.93;3.45;;;;;;;-145.41;100.00;58600.66;4994037;28;20057;-79
2023/06/13 08:05:21;;;;;;;6.40;3.65;;;;;;;-145.41;100.00;58600.66;4994310;28;20042;-78
2023/06/13 08:07:47;;;;;;;7.53;3.95;;;;;;;-145.41;100.00;58600.66;4994211;28;20038;-79
2023/06/13 08:10:12;;;;;;;7.50;4.88;;;;;;;-145.41;100.00;58600.66;4993782;28;20030;-79
2023/06/13 08:12:39;;;;;;;6.45;4.45;;;;;;;-145.41;100.00;58600.66;4992243;28;20413;-79
2023/06/13 08:15:05;;;;;;;6.43;4.07;;;;;;;-145.41;100.00;58600.66;4991838;28;20023;-79
2023/06/13 08:17:31;;;;;;;5.32;3.33;;;;;;;-145.41;100.00;58600.66;4994636;28;20034;-79
2023/06/13 08:19:56;;;;;;;9.65;3.75;;;;;;;-145.41;100.00;58600.66;4990648;28;20052;-79
2023/06/13 08:22:22;;;;;;;6.53;3.97;;;;;;;-145.41;100.00;58600.66;4993773;28;20045;-79
2023/06/13 08:24:47;;;;;;;6.70;3.08;;;;;;;-145.41;100.00;58600.66;4994406;28;20414;-79
2023/06/13 08:27:16;;;;;;;6.93;4.43;;;;;;;-145.41;100.00;58600.66;4993138;28;20077;-79
2023/06/13 08:29:42;;;;;;;8.38;3.70;;;;;;;-145.41;100.00;58600.66;4993933;28;20030;-78
2023/06/13 08:32:08;;;;;;;5.75;3.38;;;;;;;-145.41;100.00;58600.66;4994468;28;20061;-79
2023/06/13 08:34:34;;;;;;;4.78;3.50;;;;;;;-145.41;100.00;58600.66;4993625;28;20038;-79
2023/06/13 08:37:00;;;;;;;9.50;3.25;;;;;;;-145.41;100.00;58600.66;4993134;28;20382;-79
2023/06/13 08:39:25;;;;;;;8.00;4.30;;;;;;;-145.41;100.00;58600.66;4993667;28;20030;-79
2023/06/13 08:41:52;;;;;;;7.85;3.30;;;;;;;-145.41;100.00;58600.66;4992504;28;20123;-79
2023/06/13 08:44:17;;;;;;;6.15;3.65;;;;;;;-145.41;100.00;58600.66;4994834;28;20053;-78
2023/06/13 08:49:09;;;;;;;7.20;3.63;;;;;;;-145.41;100.00;58600.66;4988226;28;20058;-76
2023/06/13 08:51:37;;;;;;;6.10;3.63;;;;;;;-145.41;100.00;58600.66;4990053;28;20061;-76
2023/06/13 08:54:04;;;;;;;6.00;3.75;;;;;;;-145.41;100.00;58600.66;4989380;28;20400;-76
2023/06/13 08:56:34;;;;;;;7.85;4.13;;;;;;;-145.41;100.00;58600.66;4990591;28;20042;-76
2023/06/13 08:59:07;;;;;;;6.05;3.85;;;;;;;-145.41;100.00;58600.66;4970979;28;20035;-76
2023/06/13 09:01:32;;;;;;;5.68;4.18;;;;;;;-145.41;100.00;58600.66;4971234;28;20039;-76
2023/06/13 09:03:59;;;;;;;9.23;3.47;;;;;;;-145.41;100.00;58600.66;4971458;28;20038;-76
2023/06/13 09:06:24;;;;;;;6.78;3.40;;;;;;;-145.41;100.00;58600.66;4970299;28;20523;-76
2023/06/13 09:08:51;;;;;;;7.07;4.68;;;;;;;-145.41;100.00;58600.66;4974283;28;20038;-77
2023/06/13 09:11:18;;;;;;;7.68;5.28;;;;;;;-145.41;100.00;58600.66;4973967;28;20030;-76
2023/06/13 09:13:45;;;;;;;4.85;3.75;;;;;;;-145.41;100.00;58600.66;4974023;28;20030;-76
2023/06/13 09:16:11;;;;;;;5.80;3.58;;;;;;;-145.41;100.00;58600.66;4975162;28;20777;-76
2023/06/13 09:18:42;;;;;;;8.35;4.70;;;;;;;-145.41;100.00;58600.66;4960349;28;20093;-76
2023/06/13 09:21:08;;;;;;;6.28;4.55;;;;;;;-145.41;100.00;58600.66;4974186;28;20089;-76
2023/06/13 09:23:35;;;;;;;6.68;4.07;;;;;;;-145.41;100.00;58600.66;4974920;28;20593;-76
2023/06/13 09:26:02;;;;;;;5.45;4.00;;;;;;;-145.41;100.00;58600.66;4974913;28;20033;-76
2023/06/13 09:28:30;;;;;;;6.93;4.38;;;;;;;-145.41;100.00;58600.66;4974605;28;20038;-76
2023/06/13 09:30:56;;;;;;;8.52;3.67;;;;;;;-145.41;100.00;58600.66;4974335;28;20039;-76
2023/06/13 09:33:22;;;;;;;10.65;4.20;;;;;;;-145.41;100.00;58600.66;4957894;28;20031;-76
2023/06/13 09:35:48;;;;;;;7.03;3.95;;;;;;;-145.41;100.00;58600.66;4973882;28;20414;-76
2023/06/13 09:38:14;;;;;;;7.18;3.88;;;;;;;-145.41;100.00;58600.66;4974659;28;20503;-76
2023/06/13 09:40:45;;;;;;;7.90;3.70;;;;;;;-145.41;100.00;58600.66;4973776;28;20042;-76
2023/06/13 09:43:12;;;;;;;7.55;4.22;;;;;;;-145.41;100.00;58600.66;4974837;28;20030;-76
2023/06/13 09:45:38;;;;;;;5.07;3.55;;;;;;;-145.41;100.00;58600.66;4974872;28;20031;-76
2023/06/13 09:48:04;;;;;;;11.00;5.25;;;;;;;-145.41;100.00;58600.66;4973924;28;20402;-76
2023/06/13 09:50:31;;;;;;;8.30;6.15;;;;;;;-145.41;100.00;58600.66;4974152;28;20549;-76
2023/06/13 09:52:57;;;;;;;11.00;6.65;;;;;;;-145.41;100.00;58600.66;4972390;28;20035;-76
2023/06/13 09:55:22;;;;;;;7.40;6.53;;;;;;;-145.41;100.00;58600.66;4974535;28;20401;-76
2023/06/13 09:57:51;;;;;;;10.20;6.22;;;;;;;-145.41;100.00;58600.66;4974425;28;20031;-76
2023/06/13 10:00:17;;;;;;;17.90;6.28;;;;;;;-145.41;100.00;58600.66;4974095;28;20125;-76
2023/06/13 10:02:46;;;;;;;8.07;5.72;;;;;;;-145.41;100.00;58600.66;4974413;28;20114;-76
2023/06/13 10:05:14;;;;;;;11.35;6.38;;;;;;;-145.41;100.00;58600.66;4974428;28;20486;-76
2023/06/13 10:07:39;;;;;;;8.63;5.53;;;;;;;-145.41;100.00;58600.66;4974253;28;20027;-76
2023/06/13 10:10:06;;;;;;;8.23;5.50;;;;;;;-145.41;100.00;58600.66;4973715;28;20421;-76
2023/06/13 10:12:36;;;;;;;7.28;3.30;;;;;;;-145.41;100.00;58600.66;4974199;28;20075;-76
2023/06/13 10:15:05;;;;;;;6.65;4.15;;;;;;;-145.41;100.00;58600.66;4973595;28;20034;-76
2023/06/13 10:17:32;;;;;;;6.60;3.42;;;;;;;-145.41;100.00;58600.66;4973078;28;20031;-76
2023/06/13 10:20:10;;;;;;;9.05;5.78;;;;;;;-145.41;100.00;58600.66;4970911;28;20030;-76
2023/06/13 10:22:38;;;;;;;6.97;4.80;;;;;;;-145.41;100.00;58600.66;4971620;28;20047;-76
2023/06/13 10:25:06;;;;;;;9.15;5.32;;;;;;;-145.41;100.00;58600.66;4972891;28;20062;-76
2023/06/13 10:27:34;;;;;;;6.53;5.00;;;;;;;-145.41;100.00;58600.66;4973808;28;20035;-76
2023/06/13 10:30:29;;;;;;;6.03;3.40;;;;;;;-145.41;100.00;58600.66;4971332;28;20034;-76
2023/06/13 10:33:29;;;;;;;6.78;3.70;;;;;;;-145.41;100.00;58600.66;4956216;28;20035;-76
2023/06/13 10:36:16;;;;;;;5.65;3.10;;;;;;;-145.41;100.00;58600.66;4954654;28;20505;-76
2023/06/13 10:39:09;;;;;;;9.52;4.70;;;;;;;-145.41;100.00;58600.66;4962352;28;20037;-77
2023/06/13 10:42:04;;;;;;;17.27;5.68;;;;;;;-145.41;100.00;58600.66;4971094;28;20030;-77
2023/06/13 10:44:42;;;;;;;9.38;5.63;;;;;;;-145.41;100.00;58600.66;4973766;28;20039;-77
2023/06/13 10:47:07;;;;;;;12.10;6.03;;;;;;;-145.41;100.00;58600.66;4973364;28;20068;-76
2023/06/13 10:49:38;;;;;;;11.20;5.15;;;;;;;-145.41;100.00;58600.66;4972864;28;20509;-77
2023/06/13 10:52:08;;;;;;;6.85;3.63;;;;;;;-145.41;100.00;58600.66;4973439;28;20047;-76
2023/06/13 10:54:33;;;;;;;10.55;3.28;;;;;;;-145.41;100.00;58600.66;4973286;28;20117;-76
2023/06/13 10:57:01;;;;;;;6.68;4.40;;;;;;;-145.41;100.00;58600.66;4972652;28;20263;-76
2023/06/13 10:59:33;;;;;;;7.13;4.25;;;;;;;-145.41;100.00;58600.66;4956163;28;20117;-76
2023/06/13 11:01:59;;;;;;;6.25;3.63;;;;;;;-145.41;100.00;58600.66;4966926;28;20035;-76
2023/06/13 11:04:27;;;;;;;8.77;5.10;;;;;;;-145.41;100.00;58600.66;4972520;28;20102;-76
2023/06/13 11:07:25;;;;;;;7.93;5.70;;;;;;;-145.41;100.00;58600.66;4971650;28;20037;-76
2023/06/13 11:10:11;;;;;;;10.07;5.65;;;;;;;-145.41;100.00;58600.66;4971453;28;20550;-76
2023/06/13 11:12:37;;;;;;;8.88;4.57;;;;;;;-145.41;100.00;58600.66;4971775;28;20523;-76
2023/06/13 11:15:03;;;;;;;7.57;4.60;;;;;;;-145.41;100.00;58600.66;4970982;28;20062;-77